createdAt,value
2017-05-30T00:02:11.752Z,21.40
2017-05-30T00:04:39.989Z,21.50
2017-05-30T00:07:08.225Z,21.50
2017-05-30T00:09:36.465Z,21.40
2017-05-30T00:12:04.691Z,21.30
2017-05-30T00:14:32.934Z,21.30
2017-05-30T00:17:01.158Z,21.20
2017-05-30T00:19:29.393Z,21.00
2017-05-30T00:21:57.638Z,21.00
2017-05-30T00:24:25.878Z,21.00
2017-05-30T00:26:54.117Z,21.10
2017-05-30T00:29:22.362Z,21.20
2017-05-30T00:31:50.601Z,21.20
2017-05-30T00:34:18.838Z,21.20
2017-05-30T00:36:47.077Z,21.20
2017-05-30T00:39:15.308Z,21.20
2017-05-30T00:41:43.529Z,21.20
2017-05-30T00:44:11.765Z,21.30
2017-05-30T00:46:39.991Z,21.40
2017-05-30T00:49:08.282Z,21.40
2017-05-30T00:51:36.513Z,21.40
2017-05-30T00:54:04.756Z,21.40
2017-05-30T00:56:32.996Z,21.30
2017-05-30T00:59:01.234Z,21.30
2017-05-30T01:01:29.479Z,21.30
2017-05-30T01:03:57.717Z,21.30
2017-05-30T01:06:25.944Z,21.30
2017-05-30T01:08:54.169Z,21.30
2017-05-30T01:11:22.421Z,21.30
2017-05-30T01:13:50.666Z,21.40
2017-05-30T01:16:18.897Z,21.40
2017-05-30T01:18:47.134Z,21.40
2017-05-30T01:21:15.376Z,21.40
2017-05-30T01:23:43.629Z,21.50
2017-05-30T01:26:11.859Z,21.50
2017-05-30T01:28:40.102Z,21.50
2017-05-30T01:31:08.335Z,21.50
2017-05-30T01:33:36.573Z,21.50
2017-05-30T01:36:04.812Z,21.50
2017-05-30T01:38:33.037Z,21.50
2017-05-30T01:41:01.281Z,21.50
2017-05-30T01:43:29.522Z,21.60
2017-05-30T01:45:57.768Z,21.60
2017-05-30T01:48:26.018Z,21.50
2017-05-30T01:50:54.241Z,21.60
2017-05-30T01:53:22.481Z,21.60
2017-05-30T01:55:50.741Z,21.60
2017-05-30T01:58:18.973Z,21.60
2017-05-30T02:00:47.209Z,21.60
2017-05-30T02:03:15.434Z,21.50
2017-05-30T02:05:43.668Z,21.50
2017-05-30T02:08:11.890Z,21.50
2017-05-30T02:10:40.109Z,21.50
2017-05-30T02:13:08.349Z,21.50
2017-05-30T02:15:36.589Z,21.40
2017-05-30T02:18:04.829Z,21.40
2017-05-30T02:20:33.058Z,21.40
2017-05-30T02:23:01.301Z,21.30
2017-05-30T02:25:29.543Z,21.20
2017-05-30T02:27:57.777Z,21.10
2017-05-30T02:30:26.101Z,21.10
2017-05-30T02:32:54.313Z,21.00
2017-05-30T02:35:22.562Z,21.00
2017-05-30T02:37:50.781Z,21.00
2017-05-30T02:40:19.041Z,21.10
2017-05-30T02:42:47.329Z,21.00
2017-05-30T02:45:15.565Z,21.00
2017-05-30T02:47:43.802Z,21.00
2017-05-30T02:50:12.042Z,21.00
2017-05-30T02:52:40.284Z,21.00
2017-05-30T02:55:08.521Z,21.10
2017-05-30T02:57:36.762Z,21.10
2017-05-30T03:00:04.995Z,21.10
2017-05-30T03:02:33.220Z,21.10
2017-05-30T03:05:01.454Z,21.10
2017-05-30T03:13:12.973Z,21.10
2017-05-30T03:15:41.204Z,21.10
2017-05-30T03:18:09.432Z,21.20
2017-05-30T03:20:37.674Z,21.20
2017-05-30T03:23:05.905Z,21.20
2017-05-30T03:25:34.137Z,21.20
2017-05-30T03:28:02.371Z,21.30
2017-05-30T03:30:30.592Z,21.30
2017-05-30T03:32:58.824Z,21.40
2017-05-30T03:35:27.058Z,21.30
2017-05-30T03:37:55.285Z,21.40
2017-05-30T03:40:23.517Z,21.40
2017-05-30T03:42:51.753Z,21.40
2017-05-30T03:45:19.988Z,21.40
2017-05-30T03:47:48.224Z,21.30
2017-05-30T03:50:16.463Z,21.20
2017-05-30T03:52:44.702Z,21.20
2017-05-30T03:55:12.942Z,21.10
2017-05-30T03:57:41.168Z,21.00
2017-05-30T04:00:09.396Z,21.00
2017-05-30T04:02:37.624Z,20.90
2017-05-30T04:05:05.860Z,20.90
2017-05-30T04:07:34.101Z,20.80
2017-05-30T04:10:02.317Z,20.90
2017-05-30T04:12:30.558Z,20.90
2017-05-30T04:14:58.796Z,20.90
2017-05-30T04:17:27.033Z,20.90
2017-05-30T04:19:55.351Z,20.90
2017-05-30T04:22:23.556Z,20.80
2017-05-30T04:24:51.792Z,20.90
2017-05-30T04:27:20.020Z,20.90
2017-05-30T04:29:48.262Z,20.80
2017-05-30T04:32:16.493Z,20.80
2017-05-30T04:34:44.729Z,20.80
2017-05-30T04:37:12.960Z,20.70
2017-05-30T04:39:41.188Z,20.70
2017-05-30T04:42:09.425Z,20.70
2017-05-30T04:44:37.707Z,20.70
2017-05-30T04:47:05.941Z,20.70
2017-05-30T04:49:34.172Z,20.70
2017-05-30T04:52:02.397Z,20.70
2017-05-30T04:54:31.556Z,20.70
2017-05-30T04:56:59.797Z,20.70
2017-05-30T04:59:28.040Z,20.70
2017-05-30T05:01:56.269Z,20.80
2017-05-30T05:04:24.501Z,21.00
2017-05-30T05:06:52.722Z,21.20
2017-05-30T05:09:20.967Z,21.30
2017-05-30T05:11:49.200Z,21.40
2017-05-30T05:14:17.424Z,21.50
2017-05-30T05:16:45.653Z,21.60
2017-05-30T05:19:13.879Z,21.60
2017-05-30T05:21:42.177Z,21.60
2017-05-30T05:24:10.405Z,21.60
2017-05-30T05:26:38.695Z,21.60
2017-05-30T05:29:06.879Z,21.50
2017-05-30T05:31:35.101Z,21.50
2017-05-30T05:34:03.340Z,21.60
2017-05-30T05:36:31.572Z,21.70
2017-05-30T05:38:59.808Z,21.80
2017-05-30T05:41:28.018Z,21.90
2017-05-30T05:43:56.248Z,21.80
2017-05-30T05:46:24.476Z,21.70
2017-05-30T05:48:52.712Z,21.70
2017-05-30T05:51:20.942Z,21.60
2017-05-30T05:53:49.177Z,21.70
2017-05-30T05:56:17.413Z,21.70
2017-05-30T05:58:45.636Z,21.70
2017-05-30T06:01:13.872Z,21.70
2017-05-30T06:03:42.109Z,21.70
2017-05-30T06:06:10.342Z,21.70
2017-05-30T06:08:38.572Z,21.70
2017-05-30T06:11:06.805Z,21.70
2017-05-30T06:13:35.046Z,21.70
2017-05-30T06:16:03.335Z,21.80
2017-05-30T06:18:31.573Z,21.90
2017-05-30T06:20:59.803Z,21.90
2017-05-30T06:23:28.033Z,21.90
2017-05-30T06:25:56.272Z,22.00
2017-05-30T06:28:24.501Z,22.10
2017-05-30T06:30:52.743Z,22.20
2017-05-30T06:33:20.971Z,22.20
2017-05-30T06:35:49.197Z,22.30
2017-05-30T06:38:17.469Z,22.30
2017-05-30T06:40:45.821Z,22.40
2017-05-30T06:43:14.125Z,22.50
2017-05-30T06:45:42.400Z,22.50
2017-05-30T06:48:10.675Z,22.60
2017-05-30T06:50:38.958Z,22.60
2017-05-30T06:53:07.193Z,22.70
2017-05-30T06:55:35.428Z,22.70
2017-05-30T06:58:03.654Z,22.80
2017-05-30T07:00:31.884Z,22.90
2017-05-30T07:03:00.119Z,23.00
2017-05-30T07:05:28.357Z,23.10
2017-05-30T07:07:56.589Z,23.20
2017-05-30T07:10:24.813Z,23.20
2017-05-30T07:12:53.053Z,23.20
2017-05-30T07:15:21.276Z,23.30
2017-05-30T07:17:49.501Z,23.30
2017-05-30T07:20:17.721Z,23.50
2017-05-30T07:22:45.956Z,23.70
2017-05-30T07:25:14.181Z,23.70
2017-05-30T07:27:42.413Z,23.90
2017-05-30T07:30:10.654Z,24.10
2017-05-30T07:32:38.883Z,24.30
2017-05-30T07:35:07.145Z,24.50
2017-05-30T07:37:35.377Z,24.50
2017-05-30T07:40:03.609Z,24.60
2017-05-30T07:42:31.841Z,24.70
2017-05-30T07:45:00.064Z,24.70
2017-05-30T07:47:28.305Z,24.50
2017-05-30T07:49:56.529Z,24.30
2017-05-30T07:52:24.756Z,24.20
2017-05-30T07:54:52.989Z,24.20
2017-05-30T07:57:21.221Z,23.90
2017-05-30T07:59:49.451Z,23.80
2017-05-30T08:02:17.681Z,23.80
2017-05-30T08:04:45.920Z,23.90
2017-05-30T08:07:14.206Z,23.90
2017-05-30T08:09:42.489Z,23.90
2017-05-30T08:12:10.716Z,24.10
2017-05-30T08:14:38.949Z,24.20
2017-05-30T08:17:07.180Z,24.20
2017-05-30T08:19:35.415Z,24.30
2017-05-30T08:22:03.705Z,24.40
2017-05-30T08:24:31.929Z,24.50
2017-05-30T08:27:00.164Z,24.60
2017-05-30T08:29:28.400Z,24.60
2017-05-30T08:31:56.637Z,24.70
2017-05-30T08:34:24.858Z,24.70
2017-05-30T08:36:53.084Z,24.80
2017-05-30T08:39:21.329Z,25.00
2017-05-30T08:41:49.561Z,25.10
2017-05-30T08:44:17.792Z,25.20
2017-05-30T08:46:46.012Z,25.30
2017-05-30T08:49:14.244Z,25.30
2017-05-30T08:51:42.464Z,25.30
2017-05-30T08:54:10.692Z,25.20
2017-05-30T08:56:38.923Z,25.20
2017-05-30T08:59:07.157Z,25.30
2017-05-30T09:01:35.395Z,25.40
2017-05-30T09:04:03.639Z,25.50
2017-05-30T09:06:31.868Z,25.70
2017-05-30T09:09:00.101Z,26.00
2017-05-30T09:11:28.340Z,26.00
2017-05-30T09:13:56.568Z,26.20
2017-05-30T09:16:24.780Z,26.10
2017-05-30T09:18:53.008Z,26.00
2017-05-30T09:21:21.230Z,26.10
2017-05-30T09:23:49.456Z,26.20
2017-05-30T09:26:17.725Z,26.40
2017-05-30T09:28:45.949Z,26.60
2017-05-30T09:31:14.180Z,26.70
2017-05-30T09:33:42.399Z,26.90
2017-05-30T09:36:10.633Z,27.00
2017-05-30T09:38:38.865Z,27.10
2017-05-30T09:41:07.104Z,27.10
2017-05-30T09:43:35.333Z,27.00
2017-05-30T09:46:03.564Z,26.80
2017-05-30T09:48:31.806Z,26.80
2017-05-30T09:51:00.085Z,26.80
2017-05-30T09:53:28.304Z,26.70
2017-05-30T09:55:56.544Z,26.70
2017-05-30T09:58:24.784Z,26.80
2017-05-30T10:00:53.000Z,27.20
2017-05-30T10:03:21.243Z,27.70
2017-05-30T10:05:49.468Z,27.90
2017-05-30T10:08:17.693Z,28.20
2017-05-30T10:10:45.927Z,28.60
2017-05-30T10:13:14.144Z,28.70
2017-05-30T10:15:42.428Z,28.80
2017-05-30T10:18:10.651Z,28.70
2017-05-30T10:20:38.855Z,28.50
2017-05-30T10:23:07.085Z,28.50
2017-05-30T10:25:35.305Z,28.30
2017-05-30T10:28:03.540Z,28.30
2017-05-30T10:30:31.774Z,28.20
2017-05-30T10:32:59.993Z,28.30
2017-05-30T10:35:28.220Z,28.60
2017-05-30T10:37:56.436Z,28.80
2017-05-30T10:40:24.669Z,28.70
2017-05-30T10:42:52.900Z,28.20
2017-05-30T10:45:21.136Z,28.10
2017-05-30T10:47:49.352Z,27.70
2017-05-30T10:50:17.636Z,27.10
2017-05-30T10:52:45.852Z,26.70
2017-05-30T10:55:14.088Z,26.50
2017-05-30T10:57:42.316Z,26.50
2017-05-30T11:00:10.556Z,26.50
2017-05-30T11:02:38.796Z,26.60
2017-05-30T11:05:07.030Z,26.50
2017-05-30T11:07:35.260Z,26.40
2017-05-30T11:10:03.493Z,26.40
2017-05-30T11:12:31.721Z,26.30
2017-05-30T11:14:59.952Z,26.40
2017-05-30T11:17:28.157Z,26.70
2017-05-30T11:19:56.404Z,27.00
2017-05-30T11:22:24.648Z,27.20
2017-05-30T11:24:52.884Z,27.20
2017-05-30T11:27:21.124Z,27.10
2017-05-30T11:29:49.353Z,27.10
2017-05-30T11:32:17.580Z,27.00
2017-05-30T11:34:45.809Z,27.10
2017-05-30T11:37:14.046Z,27.40
2017-05-30T11:39:42.272Z,27.20
2017-05-30T11:42:10.507Z,26.80
2017-05-30T11:44:38.789Z,26.40
2017-05-30T11:47:06.987Z,26.20
2017-05-30T11:49:35.223Z,25.20
2017-05-30T11:52:03.545Z,22.60
2017-05-30T11:54:31.820Z,21.00
2017-05-30T11:57:00.129Z,20.10
2017-05-30T11:59:28.369Z,19.70
2017-05-30T12:01:56.608Z,19.60
2017-05-30T12:04:24.837Z,19.70
2017-05-30T12:06:53.071Z,19.80
2017-05-30T12:09:21.284Z,20.00
2017-05-30T12:11:49.524Z,20.20
2017-05-30T12:14:17.747Z,20.50
2017-05-30T12:16:45.988Z,21.00
2017-05-30T12:19:14.217Z,21.90
2017-05-30T12:21:42.457Z,22.20
2017-05-30T12:24:10.709Z,21.90
2017-05-30T12:26:38.948Z,21.70
2017-05-30T12:29:07.196Z,22.40
2017-05-30T12:31:35.430Z,25.90
2017-05-30T12:34:03.653Z,26.60
2017-05-30T12:36:31.886Z,26.40
2017-05-30T12:39:00.106Z,26.40
2017-05-30T12:41:28.348Z,26.60
2017-05-30T12:43:56.560Z,25.50
2017-05-30T12:46:24.792Z,24.70
2017-05-30T12:48:53.020Z,24.10
2017-05-30T12:51:21.259Z,23.80
2017-05-30T12:53:49.484Z,23.70
2017-05-30T12:56:17.712Z,24.50
2017-05-30T12:58:45.944Z,25.70
2017-05-30T13:01:14.168Z,28.00
2017-05-30T13:03:42.398Z,29.30
2017-05-30T13:06:10.633Z,28.90
2017-05-30T13:08:38.852Z,27.90
2017-05-30T13:11:07.093Z,27.10
2017-05-30T13:13:35.316Z,26.40
2017-05-30T13:16:03.553Z,26.20
2017-05-30T13:18:31.837Z,26.30
2017-05-30T13:21:00.069Z,26.50
2017-05-30T13:23:28.292Z,26.80
2017-05-30T13:25:56.609Z,26.50
2017-05-30T13:28:24.895Z,26.10
2017-05-30T13:30:53.068Z,25.50
2017-05-30T13:33:21.291Z,25.10
2017-05-30T13:35:49.513Z,25.00
2017-05-30T13:38:17.748Z,25.10
2017-05-30T13:40:45.976Z,25.10
2017-05-30T13:43:14.199Z,25.20
2017-05-30T13:45:42.424Z,25.60
2017-05-30T13:48:10.649Z,25.70
2017-05-30T13:50:38.913Z,25.50
2017-05-30T13:53:07.132Z,25.30
2017-05-30T13:55:35.364Z,25.30
2017-05-30T13:58:03.592Z,25.50
2017-05-30T14:00:31.811Z,26.10
2017-05-30T14:03:00.041Z,26.70
2017-05-30T14:05:28.268Z,26.80
2017-05-30T14:07:56.502Z,26.70
2017-05-30T14:10:24.720Z,26.40
2017-05-30T14:12:52.960Z,25.70
2017-05-30T14:15:21.191Z,25.30
2017-05-30T14:17:49.421Z,25.20
2017-05-30T14:20:17.652Z,25.40
2017-05-30T14:22:45.876Z,25.80
2017-05-30T14:25:14.105Z,26.40
2017-05-30T14:27:42.337Z,26.80
2017-05-30T14:30:10.569Z,26.70
2017-05-30T14:32:38.804Z,26.60
2017-05-30T14:35:07.021Z,26.40
2017-05-30T14:37:35.245Z,26.70
2017-05-30T14:40:03.464Z,27.10
2017-05-30T14:42:31.692Z,27.50
2017-05-30T14:44:59.912Z,27.80
2017-05-30T14:47:28.146Z,28.30
2017-05-30T14:49:56.360Z,28.50
2017-05-30T14:52:24.583Z,28.20
2017-05-30T14:54:52.816Z,27.80
2017-05-30T14:57:21.043Z,28.10
2017-05-30T14:59:49.282Z,28.70
2017-05-30T15:02:17.505Z,29.00
2017-05-30T15:04:45.752Z,28.50
2017-05-30T15:07:13.977Z,27.80
2017-05-30T15:09:42.201Z,27.30
2017-05-30T15:12:10.433Z,26.80
2017-05-30T15:14:38.656Z,26.60
2017-05-30T15:17:06.881Z,26.40
2017-05-30T15:19:35.109Z,26.40
2017-05-30T15:22:03.336Z,26.20
2017-05-30T15:24:31.556Z,26.00
2017-05-30T15:26:59.780Z,26.50
2017-05-30T15:29:28.010Z,26.60
2017-05-30T15:31:56.290Z,26.90
2017-05-30T15:34:24.517Z,26.70
2017-05-30T15:36:52.740Z,26.60
2017-05-30T15:39:21.015Z,26.20
2017-05-30T15:41:49.238Z,26.20
2017-05-30T15:44:17.462Z,26.20
2017-05-30T15:46:45.755Z,26.30
2017-05-30T15:49:14.005Z,26.40
2017-05-30T15:51:42.229Z,26.50
2017-05-30T15:54:10.459Z,26.60
2017-05-30T15:56:38.688Z,26.90
2017-05-30T15:59:06.917Z,27.40
2017-05-30T16:01:35.146Z,26.70
2017-05-30T16:04:03.375Z,26.40
2017-05-30T16:06:31.587Z,26.40
2017-05-30T16:08:59.822Z,26.70
2017-05-30T16:11:28.050Z,27.30
2017-05-30T16:13:56.274Z,27.20
2017-05-30T16:16:24.496Z,27.40
2017-05-30T16:18:52.727Z,27.30
2017-05-30T16:21:20.949Z,27.00
2017-05-30T18:32:04.301Z,28.30
2017-05-30T18:43:53.957Z,25.80
2017-05-30T18:46:22.180Z,24.70
2017-05-30T18:48:50.401Z,24.30
2017-05-30T18:51:18.628Z,24.00
2017-05-30T18:53:46.861Z,24.30
2017-05-30T18:56:15.093Z,24.20
2017-05-30T18:58:43.314Z,23.70
2017-05-30T19:01:11.543Z,23.40
2017-05-30T19:03:39.769Z,23.50
2017-05-30T19:06:07.994Z,23.10
2017-05-30T19:08:36.735Z,22.90
2017-05-30T19:11:04.960Z,22.70
2017-05-30T19:13:33.180Z,22.40
2017-05-30T19:16:01.420Z,22.20
2017-05-30T19:18:29.644Z,22.10
2017-05-30T19:20:57.876Z,21.90
2017-05-30T19:23:26.112Z,21.80
2017-05-30T19:28:23.443Z,24.50
2017-05-30T19:30:51.673Z,23.80
2017-05-30T19:33:19.900Z,23.50
2017-05-30T19:35:48.138Z,23.20
2017-05-30T19:38:16.409Z,23.10
2017-05-30T19:40:46.248Z,22.90
2017-05-30T19:43:14.504Z,22.30
2017-05-30T19:45:42.741Z,21.50
2017-05-30T19:48:10.969Z,21.30
2017-05-30T19:50:39.201Z,21.30
2017-05-30T19:53:07.433Z,21.10
2017-05-30T19:55:35.683Z,21.10
2017-05-30T19:58:03.935Z,21.00
2017-05-30T20:00:32.250Z,20.80
2017-05-30T20:03:00.513Z,20.70
2017-05-30T20:05:28.788Z,20.50
2017-05-30T20:07:57.100Z,20.40
2017-05-30T20:10:25.322Z,20.30
2017-05-30T20:12:53.625Z,20.20
2017-05-30T20:15:21.901Z,20.20
2017-05-30T20:17:50.176Z,20.10
2017-05-30T20:20:18.414Z,20.10
2017-05-30T20:22:46.745Z,20.00
2017-05-30T20:25:14.960Z,20.00
2017-05-30T20:27:43.188Z,19.90
2017-05-30T20:30:11.460Z,19.80
2017-05-30T20:32:39.736Z,19.70
2017-05-30T20:35:08.012Z,19.60
2017-05-30T20:37:36.292Z,19.60
2017-05-30T20:40:04.523Z,19.50
2017-05-30T20:42:32.757Z,19.50
2017-05-30T20:45:00.985Z,19.50
2017-05-30T20:47:29.301Z,19.50
2017-05-30T20:49:57.618Z,19.40
2017-05-30T20:52:25.848Z,19.40
2017-05-30T20:54:54.084Z,19.30
2017-05-30T20:57:22.319Z,19.30
2017-05-30T20:59:50.547Z,19.30
2017-05-30T21:02:18.773Z,19.30
2017-05-30T21:04:46.992Z,19.20
2017-05-30T21:07:15.215Z,19.20
2017-05-30T21:09:43.443Z,19.20
2017-05-30T21:12:11.680Z,19.20
2017-05-30T21:14:39.972Z,19.10
2017-05-30T21:17:08.192Z,19.10
2017-05-30T21:19:36.444Z,19.10
2017-05-30T21:22:04.673Z,19.00
2017-05-30T21:24:32.904Z,19.00
2017-05-30T21:27:01.140Z,18.90
2017-05-30T21:29:29.368Z,18.80
2017-05-30T21:31:57.602Z,18.80
2017-05-30T21:34:25.829Z,18.80
2017-05-30T21:36:54.057Z,18.80
2017-05-30T21:39:22.296Z,18.70
2017-05-30T21:41:50.512Z,18.70
2017-05-30T21:44:18.741Z,18.70
2017-05-30T21:46:46.976Z,18.70
2017-05-30T21:49:15.237Z,18.60
2017-05-30T21:51:44.035Z,18.60
2017-05-30T21:54:12.412Z,18.50
2017-05-30T21:56:40.628Z,18.50
2017-05-30T21:59:08.858Z,18.50
2017-05-30T22:01:37.077Z,18.40
2017-05-30T22:04:05.308Z,18.30
2017-05-30T22:06:33.536Z,18.30
2017-05-30T22:09:01.759Z,18.20
2017-05-30T22:11:29.980Z,18.10
2017-05-30T22:13:58.209Z,18.10
2017-05-30T22:16:26.473Z,18.00
2017-05-30T22:18:54.688Z,17.90
2017-05-30T22:21:22.919Z,17.80
2017-05-30T22:23:51.150Z,17.70
2017-05-30T22:26:19.381Z,17.70
2017-05-30T22:28:47.612Z,17.70
2017-05-30T22:31:15.847Z,17.70
2017-05-30T22:33:44.069Z,17.70
2017-05-30T22:36:12.288Z,17.60
2017-05-30T22:38:40.521Z,17.60
2017-05-30T22:41:08.748Z,17.70
2017-05-30T22:43:36.984Z,17.60
2017-05-30T22:46:05.216Z,17.60
2017-05-30T22:49:15.096Z,17.60
2017-05-30T22:51:44.158Z,17.60
2017-05-30T22:54:13.160Z,17.60
2017-05-30T22:56:42.157Z,17.50
2017-05-30T22:59:11.172Z,17.50
2017-05-30T23:01:40.180Z,17.40
2017-05-30T23:04:08.917Z,17.40
2017-05-30T23:06:37.661Z,17.40
2017-05-30T23:09:06.431Z,17.40
2017-05-30T23:11:35.207Z,17.30
2017-05-30T23:14:03.955Z,17.30
2017-05-30T23:16:32.698Z,17.40
2017-05-30T23:19:01.443Z,17.30
2017-05-30T23:21:30.203Z,17.30
2017-05-30T23:23:58.970Z,17.30
2017-05-30T23:26:27.973Z,17.20
2017-05-30T23:28:56.972Z,17.20
2017-05-30T23:31:26.051Z,17.20
2017-05-30T23:33:55.048Z,17.10
2017-05-30T23:36:24.041Z,17.00
2017-05-30T23:38:52.269Z,17.00
2017-05-30T23:41:20.512Z,17.00
2017-05-30T23:43:48.741Z,16.90
2017-05-30T23:46:16.969Z,16.80
2017-05-30T23:48:45.201Z,16.80
2017-05-30T23:51:13.432Z,16.70
2017-05-30T23:53:41.670Z,16.70
2017-05-30T23:56:09.892Z,16.60
2017-05-30T23:58:38.219Z,16.70
